Time;durP1;ratioP1;P1;durP2;ratioP2;P2;SDS_P1;SDS_P2;PMS_P1;PMS_P2;Temp;Humidity;BMP_temperature;BMP_pressure;BME280_temperature;BME280_humidity;BME280_pressure;Samples;Min_cycle;Max_cycle;Signal;HPM_P1;HPM_P2
2021/08/01 00:00:01;;;;;;;1.52;1.30;;;;;;;;;;4955081;29;20644;-83
2021/08/01 00:02:28;;;;;;;1.08;1.08;;;;;;;;;;4955033;29;20232;-85
2021/08/01 00:04:57;;;;;;;2.05;1.30;;;;;;;;;;4954331;28;20240;-84
2021/08/01 00:07:24;;;;;;;1.65;1.55;;;;;;;;;;4955020;29;20205;-84
2021/08/01 00:09:57;;;;;;;1.45;1.25;;;;;;;;;;4954777;29;20586;-84
2021/08/01 00:12:24;;;;;;;1.00;1.00;;;;;;;;;;4954980;29;20190;-84
2021/08/01 00:14:53;;;;;;;1.23;1.13;;;;;;;;;;4954820;28;20225;-84
2021/08/01 00:17:21;;;;;;;1.00;1.00;;;;;;;;;;4954923;29;20181;-84
2021/08/01 00:19:49;;;;;;;0.95;0.95;;;;;;;;;;4954981;29;20201;-84
2021/08/01 00:22:16;;;;;;;1.17;1.10;;;;;;;;;;4954761;29;20652;-85
2021/08/01 00:24:44;;;;;;;1.83;1.15;;;;;;;;;;4954775;28;20225;-84
2021/08/01 00:27:13;;;;;;;1.50;1.40;;;;;;;;;;4963393;28;20208;-85
2021/08/01 00:29:40;;;;;;;1.63;1.30;;;;;;;;;;4973844;28;20627;-85
2021/08/01 00:32:10;;;;;;;1.00;1.00;;;;;;;;;;4973473;28;20200;-83
2021/08/01 00:34:37;;;;;;;1.33;1.23;;;;;;;;;;4972890;28;20236;-83
2021/08/01 00:37:05;;;;;;;0.90;0.90;;;;;;;;;;4973417;28;20212;-84
2021/08/01 00:39:34;;;;;;;1.42;1.33;;;;;;;;;;4973536;28;20191;-84
2021/08/01 00:42:01;;;;;;;1.00;1.00;;;;;;;;;;4973881;28;20189;-84
2021/08/01 00:44:28;;;;;;;0.70;0.70;;;;;;;;;;4973346;28;20730;-84
2021/08/01 00:46:56;;;;;;;0.55;0.55;;;;;;;;;;4973654;28;20212;-84
2021/08/01 00:49:25;;;;;;;0.90;0.90;;;;;;;;;;4973479;28;20212;-84
2021/08/01 00:51:55;;;;;;;0.85;0.85;;;;;;;;;;4973578;28;20180;-84
2021/08/01 00:54:23;;;;;;;0.80;0.77;;;;;;;;;;4973768;28;20236;-84
2021/08/01 00:56:51;;;;;;;0.80;0.80;;;;;;;;;;4973408;28;20662;-84
2021/08/01 00:59:19;;;;;;;0.73;0.73;;;;;;;;;;4973978;28;20188;-85
2021/08/01 01:01:54;;;;;;;0.80;0.80;;;;;;;;;;4973522;28;20662;-84
2021/08/01 01:04:28;;;;;;;0.73;0.73;;;;;;;;;;4973323;28;20866;-84
2021/08/01 01:07:02;;;;;;;0.85;0.85;;;;;;;;;;4973793;28;20196;-84
2021/08/01 01:09:36;;;;;;;1.00;1.00;;;;;;;;;;4973373;28;20203;-84
2021/08/01 01:12:09;;;;;;;1.30;1.20;;;;;;;;;;4973557;28;20640;-84
2021/08/01 01:14:41;;;;;;;1.02;0.95;;;;;;;;;;4973435;28;20699;-84
2021/08/01 01:17:12;;;;;;;1.00;1.00;;;;;;;;;;4974184;28;20197;-84
2021/08/01 01:20:10;;;;;;;1.40;1.30;;;;;;;;;;4977562;28;20679;-84
2021/08/01 01:22:41;;;;;;;1.10;1.10;;;;;;;;;;4977591;28;20195;-83
2021/08/01 01:25:20;;;;;;;0.82;0.82;;;;;;;;;;4977231;28;20244;-84
2021/08/01 01:27:54;;;;;;;1.13;1.13;;;;;;;;;;4977523;28;20559;-84
2021/08/01 01:30:21;;;;;;;1.17;1.08;;;;;;;;;;4977263;28;20192;-84
2021/08/01 01:32:55;;;;;;;1.15;1.10;;;;;;;;;;4977064;28;20208;-84
2021/08/01 01:35:22;;;;;;;0.80;0.80;;;;;;;;;;4977002;28;20279;-84
2021/08/01 01:37:52;;;;;;;0.80;0.80;;;;;;;;;;4977091;28;20188;-84
2021/08/01 01:40:22;;;;;;;0.90;0.90;;;;;;;;;;4976823;28;20196;-84
2021/08/01 01:42:53;;;;;;;0.80;0.80;;;;;;;;;;4977449;28;20196;-84
2021/08/01 01:45:22;;;;;;;1.05;1.05;;;;;;;;;;4977007;28;20216;-84
2021/08/01 01:47:50;;;;;;;0.93;0.93;;;;;;;;;;4977100;28;20192;-84
2021/08/01 01:50:19;;;;;;;1.05;1.05;;;;;;;;;;4977031;28;20193;-84
2021/08/01 01:52:51;;;;;;;1.20;1.10;;;;;;;;;;4976533;28;20583;-84
2021/08/01 01:55:20;;;;;;;1.90;1.30;;;;;;;;;;4976488;28;20224;-84
2021/08/01 01:57:48;;;;;;;1.70;1.60;;;;;;;;;;4976913;28;20184;-83
2021/08/01 02:00:17;;;;;;;1.50;1.40;;;;;;;;;;4976317;28;20212;-83
2021/08/01 02:02:45;;;;;;;2.33;1.40;;;;;;;;;;4976162;28;20227;-83
2021/08/01 02:05:13;;;;;;;1.52;1.30;;;;;;;;;;4976146;28;20707;-84
2021/08/01 02:07:41;;;;;;;1.30;1.20;;;;;;;;;;4976390;28;20212;-84
2021/08/01 02:10:15;;;;;;;1.45;1.35;;;;;;;;;;4976469;28;20255;-84
2021/08/01 02:12:49;;;;;;;2.00;1.60;;;;;;;;;;4976373;28;20568;-84
2021/08/01 02:15:18;;;;;;;1.10;1.10;;;;;;;;;;4976132;28;20223;-84
2021/08/01 02:17:56;;;;;;;1.15;1.08;;;;;;;;;;4976406;28;20185;-84
2021/08/01 02:20:29;;;;;;;1.23;1.10;;;;;;;;;;4976080;28;20191;-83
2021/08/01 02:22:58;;;;;;;1.60;1.00;;;;;;;;;;4976681;28;20192;-84
2021/08/01 02:25:29;;;;;;;0.90;0.90;;;;;;;;;;4976059;28;20227;-83
2021/08/01 02:27:58;;;;;;;1.02;1.02;;;;;;;;;;4975699;28;20196;-83
2021/08/01 02:30:27;;;;;;;0.77;0.77;;;;;;;;;;4976256;28;20203;-83
2021/08/01 02:32:55;;;;;;;1.10;1.10;;;;;;;;;;4976097;28;20220;-83
2021/08/01 02:35:22;;;;;;;1.75;1.38;;;;;;;;;;4975991;28;20240;-83
2021/08/01 02:37:51;;;;;;;1.42;1.33;;;;;;;;;;4976004;28;20648;-84
2021/08/01 02:40:19;;;;;;;1.15;1.15;;;;;;;;;;4976330;28;20194;-84
2021/08/01 02:42:50;;;;;;;1.10;1.10;;;;;;;;;;4976191;28;20205;-84
2021/08/01 02:45:19;;;;;;;1.55;1.45;;;;;;;;;;4976566;28;20227;-84
2021/08/01 02:47:53;;;;;;;1.42;1.40;;;;;;;;;;4976018;28;20208;-84
2021/08/01 02:50:20;;;;;;;3.22;1.40;;;;;;;;;;4971797;28;20704;-84
2021/08/01 02:52:54;;;;;;;1.45;1.35;;;;;;;;;;4974712;28;20559;-84
2021/08/01 02:55:22;;;;;;;1.38;1.20;;;;;;;;;;4975218;28;20237;-83
2021/08/01 02:57:51;;;;;;;1.45;1.10;;;;;;;;;;4975836;28;20295;-84
2021/08/01 03:00:20;;;;;;;1.33;1.23;;;;;;;;;;4975799;28;20200;-83
2021/08/01 03:02:48;;;;;;;0.93;0.93;;;;;;;;;;4973725;28;20674;-84
2021/08/01 03:05:17;;;;;;;2.08;1.10;;;;;;;;;;4973817;28;20240;-83
2021/08/01 03:07:45;;;;;;;1.30;1.20;;;;;;;;;;4974911;28;20636;-84
2021/08/01 03:10:14;;;;;;;1.23;1.20;;;;;;;;;;4975253;28;20697;-84
2021/08/01 03:12:43;;;;;;;1.40;1.30;;;;;;;;;;4975449;28;20188;-84
2021/08/01 03:15:13;;;;;;;1.13;1.00;;;;;;;;;;4975481;28;20287;-84
2021/08/01 03:17:41;;;;;;;1.40;1.30;;;;;;;;;;4975055;28;20682;-84
2021/08/01 03:20:10;;;;;;;1.17;1.08;;;;;;;;;;4975095;28;20200;-84
2021/08/01 03:22:38;;;;;;;0.90;0.90;;;;;;;;;;4975224;28;20188;-84
2021/08/01 03:25:06;;;;;;;1.00;1.00;;;;;;;;;;4974893;28;20614;-83
2021/08/01 03:27:34;;;;;;;0.95;0.90;;;;;;;;;;4975342;28;20567;-84
2021/08/01 03:30:01;;;;;;;0.88;0.88;;;;;;;;;;4975269;28;20188;-85
2021/08/01 03:32:30;;;;;;;0.65;0.65;;;;;;;;;;4975092;28;20196;-85
2021/08/01 03:34:57;;;;;;;0.73;0.73;;;;;;;;;;4974996;28;20235;-84
2021/08/01 03:37:27;;;;;;;1.00;1.00;;;;;;;;;;4974550;28;20224;-84
2021/08/01 03:39:55;;;;;;;1.10;1.05;;;;;;;;;;4974109;28;20189;-84
2021/08/01 03:42:23;;;;;;;1.40;1.30;;;;;;;;;;4974902;28;20398;-84
2021/08/01 03:44:50;;;;;;;1.15;1.15;;;;;;;;;;4974724;28;20216;-84
2021/08/01 03:47:18;;;;;;;1.35;1.25;;;;;;;;;;4974297;28;20193;-84
2021/08/01 03:49:48;;;;;;;2.10;1.88;;;;;;;;;;4974848;28;20195;-84
2021/08/01 03:52:15;;;;;;;1.60;1.40;;;;;;;;;;4974737;28;20208;-83
2021/08/01 03:54:44;;;;;;;1.20;1.20;;;;;;;;;;4974423;28;20248;-84
2021/08/01 03:57:13;;;;;;;1.77;1.50;;;;;;;;;;4974572;28;20679;-84
2021/08/01 03:59:40;;;;;;;1.60;1.50;;;;;;;;;;4974368;28;20706;-84
2021/08/01 04:02:08;;;;;;;1.85;1.60;;;;;;;;;;4974161;28;20204;-83
2021/08/01 04:04:35;;;;;;;1.58;1.48;;;;;;;;;;4973963;28;20247;-84
2021/08/01 04:07:06;;;;;;;1.50;1.40;;;;;;;;;;4974247;28;20223;-84
2021/08/01 04:09:34;;;;;;;1.90;1.80;;;;;;;;;;4973209;28;20205;-83
2021/08/01 04:12:02;;;;;;;1.27;1.17;;;;;;;;;;4973300;28;20200;-84
2021/08/01 04:14:31;;;;;;;1.60;1.08;;;;;;;;;;4972855;28;20232;-83
2021/08/01 04:16:59;;;;;;;1.00;1.00;;;;;;;;;;4973232;28;20271;-84
2021/08/01 04:19:27;;;;;;;1.10;1.10;;;;;;;;;;4973051;28;20200;-84
2021/08/01 04:21:54;;;;;;;1.77;1.67;;;;;;;;;;4973323;28;20193;-84
2021/08/01 04:24:23;;;;;;;1.42;1.33;;;;;;;;;;4973783;28;20221;-84
2021/08/01 04:26:50;;;;;;;0.98;0.98;;;;;;;;;;4974311;28;20185;-84
2021/08/01 04:29:18;;;;;;;1.65;1.55;;;;;;;;;;4974217;28;20559;-84
2021/08/01 04:31:45;;;;;;;1.52;1.42;;;;;;;;;;4973817;28;20211;-84
2021/08/01 04:34:16;;;;;;;1.67;1.58;;;;;;;;;;4973650;28;20231;-84
2021/08/01 04:36:43;;;;;;;1.63;1.52;;;;;;;;;;4973746;28;20223;-84
2021/08/01 04:39:10;;;;;;;1.73;1.40;;;;;;;;;;4974033;28;20682;-84
2021/08/01 04:41:39;;;;;;;1.40;1.30;;;;;;;;;;4974014;28;20196;-83
2021/08/01 04:44:07;;;;;;;1.20;1.10;;;;;;;;;;4973883;28;20311;-83
2021/08/01 04:46:34;;;;;;;1.88;1.50;;;;;;;;;;4974001;28;20565;-83
2021/08/01 04:49:02;;;;;;;2.20;2.00;;;;;;;;;;4973940;28;20577;-84
2021/08/01 04:51:29;;;;;;;1.13;1.13;;;;;;;;;;4973578;28;20204;-84
2021/08/01 04:53:57;;;;;;;1.00;1.00;;;;;;;;;;4973623;28;20238;-84
2021/08/01 04:56:24;;;;;;;1.15;1.13;;;;;;;;;;4973419;28;20204;-84
2021/08/01 04:58:53;;;;;;;1.02;1.02;;;;;;;;;;4973339;28;20231;-84
2021/08/01 05:01:20;;;;;;;1.08;1.08;;;;;;;;;;4973613;28;20211;-83
2021/08/01 05:03:47;;;;;;;0.90;0.90;;;;;;;;;;4973128;28;20232;-83
2021/08/01 05:06:15;;;;;;;1.25;1.15;;;;;;;;;;4973370;28;20192;-83
2021/08/01 05:08:42;;;;;;;1.63;1.52;;;;;;;;;;4973644;28;20189;-83
2021/08/01 05:11:10;;;;;;;1.00;1.00;;;;;;;;;;4973435;28;20177;-84
2021/08/01 05:13:37;;;;;;;1.58;1.48;;;;;;;;;;4973309;28;20232;-84
2021/08/01 05:16:06;;;;;;;1.45;1.35;;;;;;;;;;4973787;28;20600;-83
2021/08/01 05:18:33;;;;;;;1.48;1.38;;;;;;;;;;4973387;28;20209;-84
2021/08/01 05:21:01;;;;;;;1.50;1.40;;;;;;;;;;4973807;28;20193;-84
2021/08/01 05:23:28;;;;;;;1.30;1.20;;;;;;;;;;4973452;28;20216;-84
2021/08/01 05:25:57;;;;;;;1.02;1.02;;;;;;;;;;4973584;28;20576;-84
2021/08/01 05:28:24;;;;;;;1.67;1.58;;;;;;;;;;4974033;28;20199;-83
2021/08/01 05:30:52;;;;;;;1.77;1.67;;;;;;;;;;4973667;28;20204;-84
2021/08/01 05:33:21;;;;;;;1.77;1.67;;;;;;;;;;4973344;28;20215;-84
2021/08/01 05:35:48;;;;;;;1.55;1.45;;;;;;;;;;4973700;28;20635;-84
2021/08/01 05:38:16;;;;;;;1.52;1.42;;;;;;;;;;4973715;28;20204;-83
2021/08/01 05:40:45;;;;;;;1.40;1.30;;;;;;;;;;4973772;28;20200;-84
2021/08/01 05:43:12;;;;;;;2.50;2.30;;;;;;;;;;4973800;28;20244;-84
2021/08/01 05:45:39;;;;;;;1.60;1.50;;;;;;;;;;4973102;28;20229;-84
2021/08/01 05:48:07;;;;;;;1.70;1.60;;;;;;;;;;4973393;28;20216;-84
2021/08/01 05:50:36;;;;;;;2.20;2.00;;;;;;;;;;4973104;28;20192;-84
2021/08/01 05:53:03;;;;;;;1.50;1.40;;;;;;;;;;4973305;28;20185;-83
2021/08/01 05:55:30;;;;;;;1.60;1.50;;;;;;;;;;4972921;28;20225;-83
2021/08/01 05:57:58;;;;;;;1.40;1.30;;;;;;;;;;4973191;28;20220;-84
2021/08/01 06:00:27;;;;;;;1.30;1.20;;;;;;;;;;4973348;28;20572;-84
2021/08/01 06:02:55;;;;;;;2.08;1.88;;;;;;;;;;4973405;28;20209;-83
2021/08/01 06:05:22;;;;;;;1.05;1.05;;;;;;;;;;4975960;28;20244;-84
2021/08/01 06:07:51;;;;;;;1.73;1.63;;;;;;;;;;4976554;28;20181;-84
2021/08/01 06:10:18;;;;;;;1.92;1.83;;;;;;;;;;4976981;28;20200;-83
2021/08/01 06:12:46;;;;;;;1.95;1.85;;;;;;;;;;4977242;28;20218;-83
2021/08/01 06:15:13;;;;;;;2.03;1.40;;;;;;;;;;4976377;28;20224;-83
2021/08/01 06:17:41;;;;;;;1.70;1.60;;;;;;;;;;4976446;28;20217;-83
2021/08/01 06:20:11;;;;;;;2.78;2.15;;;;;;;;;;4976597;28;20204;-84
2021/08/01 06:22:38;;;;;;;2.50;2.30;;;;;;;;;;4977585;28;20192;-84
2021/08/01 06:25:08;;;;;;;2.03;1.80;;;;;;;;;;4976309;28;20220;-83
2021/08/01 06:27:36;;;;;;;1.38;1.33;;;;;;;;;;4976141;28;20205;-83
2021/08/01 06:30:04;;;;;;;2.20;2.10;;;;;;;;;;4975825;28;20215;-84
2021/08/01 06:32:32;;;;;;;2.00;1.80;;;;;;;;;;4975883;28;20655;-84
2021/08/01 06:34:59;;;;;;;6.03;2.22;;;;;;;;;;4975759;28;20725;-84
2021/08/01 06:37:26;;;;;;;2.00;1.90;;;;;;;;;;4976010;28;20196;-84
2021/08/01 06:39:54;;;;;;;1.63;1.50;;;;;;;;;;4976693;28;20181;-84
2021/08/01 06:42:24;;;;;;;2.05;1.95;;;;;;;;;;4975892;28;20208;-84
2021/08/01 06:44:51;;;;;;;2.15;1.80;;;;;;;;;;4972562;28;20220;-85
2021/08/01 06:47:18;;;;;;;1.90;1.70;;;;;;;;;;4975832;28;20184;-84
2021/08/01 06:49:46;;;;;;;2.38;1.70;;;;;;;;;;4976853;28;20570;-84
2021/08/01 06:52:13;;;;;;;1.50;1.40;;;;;;;;;;4976779;28;20200;-84
2021/08/01 06:54:41;;;;;;;1.48;1.38;;;;;;;;;;4976014;28;20240;-84
2021/08/01 06:57:08;;;;;;;1.38;1.27;;;;;;;;;;4975386;28;20204;-84
2021/08/01 06:59:38;;;;;;;1.60;1.50;;;;;;;;;;4975431;28;20212;-84
2021/08/01 07:02:06;;;;;;;2.55;2.15;;;;;;;;;;4976280;28;20603;-84
2021/08/01 07:04:33;;;;;;;2.30;2.10;;;;;;;;;;4974986;28;20232;-83
2021/08/01 07:07:01;;;;;;;2.30;2.08;;;;;;;;;;4977678;28;20208;-85
2021/08/01 07:09:28;;;;;;;2.00;1.80;;;;;;;;;;4975765;28;20193;-84
2021/08/01 07:11:56;;;;;;;1.50;1.40;;;;;;;;;;4975653;28;20189;-83
2021/08/01 07:14:23;;;;;;;2.20;1.95;;;;;;;;;;4975343;28;20234;-84
2021/08/01 07:16:52;;;;;;;2.63;2.38;;;;;;;;;;4975584;28;20260;-85
2021/08/01 07:19:19;;;;;;;2.10;2.00;;;;;;;;;;4975534;28;20228;-83
2021/08/01 07:21:48;;;;;;;2.17;2.08;;;;;;;;;;4975832;28;20187;-83
2021/08/01 07:24:15;;;;;;;2.25;2.05;;;;;;;;;;4975186;28;20224;-83
2021/08/01 07:26:43;;;;;;;3.08;1.92;;;;;;;;;;4973591;28;20211;-83
2021/08/01 07:29:10;;;;;;;2.25;2.15;;;;;;;;;;4975191;28;20197;-84
2021/08/01 07:31:37;;;;;;;1.80;1.70;;;;;;;;;;4982313;28;20191;-83
2021/08/01 07:34:06;;;;;;;2.45;2.25;;;;;;;;;;4984895;28;20220;-84
2021/08/01 07:36:34;;;;;;;2.58;2.38;;;;;;;;;;4974446;28;20207;-84
2021/08/01 07:39:01;;;;;;;1.88;1.77;;;;;;;;;;4974759;28;20205;-82
2021/08/01 07:41:29;;;;;;;1.83;1.73;;;;;;;;;;4974908;28;20180;-83
2021/08/01 07:43:56;;;;;;;2.00;1.90;;;;;;;;;;4974850;28;20225;-83
2021/08/01 07:46:24;;;;;;;3.28;2.97;;;;;;;;;;4975412;28;20195;-83
2021/08/01 07:48:51;;;;;;;3.08;2.80;;;;;;;;;;4974991;28;20224;-82
2021/08/01 07:51:20;;;;;;;4.53;3.25;;;;;;;;;;4975391;28;20192;-83
2021/08/01 07:53:47;;;;;;;3.72;2.63;;;;;;;;;;4967938;28;20220;-83
2021/08/01 07:56:15;;;;;;;3.17;2.88;;;;;;;;;;4967125;28;20200;-83
2021/08/01 07:58:42;;;;;;;2.25;2.05;;;;;;;;;;4974128;28;20683;-83
2021/08/01 08:01:10;;;;;;;4.30;3.90;;;;;;;;;;4974462;28;20205;-83
2021/08/01 08:03:37;;;;;;;4.13;3.72;;;;;;;;;;4968367;28;21079;-83
2021/08/01 08:06:07;;;;;;;3.58;3.22;;;;;;;;;;4963724;28;20196;-83
2021/08/01 08:08:36;;;;;;;3.60;3.35;;;;;;;;;;4975115;28;20602;-83
2021/08/01 08:11:03;;;;;;;3.20;2.90;;;;;;;;;;4975259;28;20185;-84
2021/08/01 08:13:31;;;;;;;3.78;3.47;;;;;;;;;;4971148;28;20192;-83
2021/08/01 08:15:58;;;;;;;4.47;4.07;;;;;;;;;;4967818;28;20204;-84
2021/08/01 08:18:26;;;;;;;4.47;4.07;;;;;;;;;;4975380;28;20677;-84
2021/08/01 08:20:53;;;;;;;3.88;3.58;;;;;;;;;;4973622;28;20686;-84
2021/08/01 08:23:23;;;;;;;3.53;3.22;;;;;;;;;;4974330;28;20193;-83
2021/08/01 08:25:54;;;;;;;3.35;3.10;;;;;;;;;;4974143;28;20201;-84
2021/08/01 08:28:21;;;;;;;3.67;3.10;;;;;;;;;;4974484;28;20635;-84
2021/08/01 08:30:49;;;;;;;3.63;3.33;;;;;;;;;;4974018;28;20185;-83
2021/08/01 08:33:16;;;;;;;3.15;2.92;;;;;;;;;;4973025;28;20207;-83
2021/08/01 08:35:44;;;;;;;2.80;2.60;;;;;;;;;;4972379;28;20200;-84
2021/08/01 08:38:11;;;;;;;3.92;3.08;;;;;;;;;;4974715;28;20195;-83
2021/08/01 08:40:39;;;;;;;3.00;2.70;;;;;;;;;;4975345;28;20219;-84
2021/08/01 08:43:09;;;;;;;2.65;2.45;;;;;;;;;;4975759;28;20198;-84
2021/08/01 08:45:37;;;;;;;2.72;2.50;;;;;;;;;;4974877;28;20236;-84
2021/08/01 08:48:07;;;;;;;2.22;2.13;;;;;;;;;;4975214;28;20193;-84
2021/08/01 08:50:37;;;;;;;2.78;2.53;;;;;;;;;;4974896;28;20200;-84
2021/08/01 08:53:06;;;;;;;2.95;2.75;;;;;;;;;;4973455;28;20247;-84
2021/08/01 08:55:36;;;;;;;3.40;3.10;;;;;;;;;;4973224;28;20235;-83
2021/08/01 08:58:05;;;;;;;4.15;3.75;;;;;;;;;;4973313;28;20818;-84
2021/08/01 09:00:35;;;;;;;2.70;2.35;;;;;;;;;;4972942;28;20231;-85
2021/08/01 09:03:03;;;;;;;2.33;2.20;;;;;;;;;;4973295;28;20634;-84
2021/08/01 09:05:31;;;;;;;2.13;2.03;;;;;;;;;;4972862;28;20248;-84
2021/08/01 09:07:59;;;;;;;2.63;2.42;;;;;;;;;;4973556;28;20271;-85
2021/08/01 09:10:27;;;;;;;2.88;2.67;;;;;;;;;;4972401;28;20218;-84
2021/08/01 09:12:54;;;;;;;3.00;2.80;;;;;;;;;;4972815;28;20197;-83
2021/08/01 09:15:39;;;;;;;3.28;2.97;;;;;;;;;;4971356;28;20227;-84
2021/08/01 09:18:12;;;;;;;4.20;3.30;;;;;;;;;;4974653;28;20200;-85
2021/08/01 09:20:51;;;;;;;4.35;3.95;;;;;;;;;;4973337;28;20625;-85
2021/08/01 09:23:19;;;;;;;3.58;3.38;;;;;;;;;;4975194;28;20634;-84
2021/08/01 09:25:59;;;;;;;4.28;3.95;;;;;;;;;;4976744;28;20208;-85
2021/08/01 09:28:26;;;;;;;4.10;3.70;;;;;;;;;;4974079;28;20204;-85
2021/08/01 09:30:58;;;;;;;3.65;3.38;;;;;;;;;;4955345;29;20205;-85
2021/08/01 09:33:37;;;;;;;2.60;2.40;;;;;;;;;;4958913;28;20296;-85
2021/08/01 09:36:10;;;;;;;3.13;2.85;;;;;;;;;;4973590;28;20207;-84
2021/08/01 09:38:50;;;;;;;3.78;3.30;;;;;;;;;;4974875;28;20201;-85
2021/08/01 09:41:21;;;;;;;3.45;3.15;;;;;;;;;;4981757;28;20579;-85
2021/08/01 09:43:50;;;;;;;2.95;2.75;;;;;;;;;;4981616;28;21192;-86
2021/08/01 09:53:42;;;;;;;2.97;2.72;;;;;;;;;;4974773;28;20294;-86
2021/08/01 09:56:20;;;;;;;4.07;3.72;;;;;;;;;;4976582;28;20207;-85
2021/08/01 09:58:49;;;;;;;3.42;3.13;;;;;;;;;;4976023;28;20275;-85
2021/08/01 10:01:17;;;;;;;4.18;3.78;;;;;;;;;;4976482;28;20224;-83
2021/08/01 10:03:46;;;;;;;3.50;3.30;;;;;;;;;;4977199;28;20228;-84
2021/08/01 10:06:17;;;;;;;3.60;3.35;;;;;;;;;;4976502;28;20626;-83
2021/08/01 10:08:48;;;;;;;4.28;3.70;;;;;;;;;;4970638;28;20209;-83
2021/08/01 10:11:18;;;;;;;4.18;3.88;;;;;;;;;;4971439;28;20204;-82
2021/08/01 10:13:47;;;;;;;4.15;3.85;;;;;;;;;;4986604;28;20562;-83
2021/08/01 10:16:15;;;;;;;3.17;2.90;;;;;;;;;;4979287;28;20569;-82
2021/08/01 10:18:44;;;;;;;3.85;3.47;;;;;;;;;;4989097;28;20207;-84
2021/08/01 10:21:15;;;;;;;2.65;2.45;;;;;;;;;;4976746;28;20591;-85
2021/08/01 10:23:48;;;;;;;2.45;2.28;;;;;;;;;;4976125;28;20235;-84
2021/08/01 10:26:16;;;;;;;2.78;2.58;;;;;;;;;;4976440;28;20195;-84
2021/08/01 10:28:52;;;;;;;2.20;2.10;;;;;;;;;;4975831;28;20195;-86
2021/08/01 10:31:27;;;;;;;2.88;2.67;;;;;;;;;;4977153;28;20195;-85
2021/08/01 10:34:06;;;;;;;3.42;3.13;;;;;;;;;;4976527;28;20593;-86
2021/08/01 10:37:14;;;;;;;3.80;3.50;;;;;;;;;;4975934;28;20207;-85
2021/08/01 10:39:45;;;;;;;3.90;3.60;;;;;;;;;;4978657;28;20201;-85
2021/08/01 10:43:22;;;;;;;3.72;3.42;;;;;;;;;;4978469;28;20719;-85
2021/08/01 10:45:50;;;;;;;4.03;3.65;;;;;;;;;;4958802;28;20280;-85
2021/08/01 10:48:23;;;;;;;3.47;3.28;;;;;;;;;;4977340;28;20682;-85
2021/08/01 10:50:52;;;;;;;3.60;3.40;;;;;;;;;;4977410;28;20189;-85
2021/08/01 10:53:27;;;;;;;3.90;3.63;;;;;;;;;;4977534;28;20193;-84
2021/08/01 10:56:32;;;;;;;4.25;3.85;;;;;;;;;;4976969;28;20218;-84
2021/08/01 10:59:00;;;;;;;3.33;3.05;;;;;;;;;;4976179;28;20198;-85
2021/08/01 11:01:29;;;;;;;4.05;3.70;;;;;;;;;;4977315;28;20682;-83
2021/08/01 11:04:31;;;;;;;4.28;3.88;;;;;;;;;;4977883;28;20296;-83
2021/08/01 11:06:58;;;;;;;3.75;3.45;;;;;;;;;;4965692;28;20220;-85
2021/08/01 11:09:26;;;;;;;3.85;3.55;;;;;;;;;;4976489;28;20208;-84
2021/08/01 11:12:31;;;;;;;3.28;3.08;;;;;;;;;;4976939;28;20195;-85
2021/08/01 11:15:00;;;;;;;2.70;2.50;;;;;;;;;;4969522;28;20223;-85
2021/08/01 11:18:05;;;;;;;2.38;2.28;;;;;;;;;;4974869;28;20663;-84
2021/08/01 11:20:52;;;;;;;3.20;3.00;;;;;;;;;;4957326;29;20228;-85
2021/08/01 11:23:20;;;;;;;3.55;3.30;;;;;;;;;;4970900;28;20266;-85
2021/08/01 11:26:09;;;;;;;3.70;3.40;;;;;;;;;;4976668;28;20204;-85
2021/08/01 11:28:38;;;;;;;3.47;3.28;;;;;;;;;;5013775;23;20240;-84
2021/08/01 11:31:21;;;;;;;3.83;3.53;;;;;;;;;;4977609;28;20205;-83
2021/08/01 11:33:54;;;;;;;3.42;3.20;;;;;;;;;;4976711;28;20209;-84
2021/08/01 11:36:27;;;;;;;3.35;3.05;;;;;;;;;;4978963;28;20630;-84
2021/08/01 11:39:08;;;;;;;2.97;2.78;;;;;;;;;;4958381;28;20263;-84
2021/08/01 11:41:48;;;;;;;3.05;2.85;;;;;;;;;;4937834;29;20233;-83
2021/08/01 11:44:21;;;;;;;3.53;3.33;;;;;;;;;;4936410;29;20256;-84
2021/08/01 11:47:10;;;;;;;2.80;2.60;;;;;;;;;;4936506;29;20222;-84
2021/08/01 11:49:47;;;;;;;2.50;2.33;;;;;;;;;;4939366;28;20230;-84
2021/08/01 11:52:21;;;;;;;3.55;3.25;;;;;;;;;;4949566;28;20201;-85
2021/08/01 11:54:55;;;;;;;4.05;3.75;;;;;;;;;;4955017;29;20545;-84
2021/08/01 11:57:30;;;;;;;4.32;3.75;;;;;;;;;;4954877;28;20235;-85
2021/08/01 11:59:59;;;;;;;3.70;3.40;;;;;;;;;;4955000;29;20184;-85
2021/08/01 12:02:26;;;;;;;6.28;3.15;;;;;;;;;;4942670;28;20210;-84
2021/08/01 12:04:55;;;;;;;3.20;3.00;;;;;;;;;;4936632;29;20197;-85
2021/08/01 12:07:38;;;;;;;3.85;3.17;;;;;;;;;;4939465;29;20604;-85
2021/08/01 12:10:16;;;;;;;2.97;2.78;;;;;;;;;;4955081;29;20189;-84
2021/08/01 12:12:44;;;;;;;2.85;2.65;;;;;;;;;;4955155;28;20208;-84
2021/08/01 12:15:13;;;;;;;2.95;2.75;;;;;;;;;;4960067;28;20196;-84
2021/08/01 12:17:41;;;;;;;2.97;2.78;;;;;;;;;;4954901;28;20239;-84
2021/08/01 12:20:10;;;;;;;3.90;3.42;;;;;;;;;;4954958;29;20189;-84
2021/08/01 12:22:38;;;;;;;3.28;2.97;;;;;;;;;;4953419;29;20687;-84
2021/08/01 12:25:08;;;;;;;2.65;2.45;;;;;;;;;;4954616;29;20207;-83
2021/08/01 12:27:37;;;;;;;3.20;3.00;;;;;;;;;;4954305;28;20236;-84
2021/08/01 12:30:19;;;;;;;2.88;2.58;;;;;;;;;;4954394;29;20197;-84
2021/08/01 12:32:49;;;;;;;3.15;2.90;;;;;;;;;;4942104;29;20690;-84
2021/08/01 12:35:18;;;;;;;4.03;3.63;;;;;;;;;;4935545;29;20561;-84
2021/08/01 12:37:52;;;;;;;2.67;2.53;;;;;;;;;;4942252;29;20695;-84
2021/08/01 12:40:31;;;;;;;3.08;2.88;;;;;;;;;;4954638;29;20189;-84
2021/08/01 12:43:00;;;;;;;3.03;2.83;;;;;;;;;;4954616;28;20240;-85
2021/08/01 12:45:34;;;;;;;3.03;2.83;;;;;;;;;;4954631;29;20195;-84
2021/08/01 12:48:02;;;;;;;3.78;3.47;;;;;;;;;;4954515;28;20235;-84
2021/08/01 12:50:31;;;;;;;3.92;3.60;;;;;;;;;;4954508;29;20189;-83
2021/08/01 12:52:58;;;;;;;3.67;3.38;;;;;;;;;;4954322;29;20559;-83
2021/08/01 12:55:27;;;;;;;2.90;2.70;;;;;;;;;;4954306;29;20212;-84
2021/08/01 12:58:06;;;;;;;4.00;3.70;;;;;;;;;;4954457;29;20588;-84
2021/08/01 13:00:36;;;;;;;5.15;4.03;;;;;;;;;;4953011;29;20197;-83
2021/08/01 13:03:06;;;;;;;4.00;3.70;;;;;;;;;;4935361;29;20225;-84
2021/08/01 13:05:36;;;;;;;3.20;3.00;;;;;;;;;;4935414;29;20194;-84
2021/08/01 13:08:05;;;;;;;3.40;3.20;;;;;;;;;;4944623;29;20567;-84
2021/08/01 13:10:48;;;;;;;3.38;3.08;;;;;;;;;;4955082;29;20192;-84
2021/08/01 13:13:17;;;;;;;2.90;2.70;;;;;;;;;;4956444;28;20207;-85
2021/08/01 13:15:57;;;;;;;2.95;2.75;;;;;;;;;;4938644;29;20196;-84
2021/08/01 13:18:29;;;;;;;4.00;2.97;;;;;;;;;;4947646;29;20220;-84
2021/08/01 13:20:57;;;;;;;3.03;2.83;;;;;;;;;;4939693;29;20186;-85
2021/08/01 13:23:46;;;;;;;3.00;2.80;;;;;;;;;;4939880;29;20220;-84
2021/08/01 13:26:29;;;;;;;3.00;2.80;;;;;;;;;;4941060;29;20237;-85
2021/08/01 13:29:03;;;;;;;2.47;2.28;;;;;;;;;;4954731;29;20588;-84
2021/08/01 13:31:43;;;;;;;2.50;2.30;;;;;;;;;;4939940;29;20196;-85
2021/08/01 13:34:12;;;;;;;2.20;2.10;;;;;;;;;;4939815;29;20205;-84
2021/08/01 13:36:56;;;;;;;2.40;2.20;;;;;;;;;;4958151;28;20212;-84
2021/08/01 13:39:27;;;;;;;2.88;2.10;;;;;;;;;;4939140;29;20217;-85
2021/08/01 13:42:08;;;;;;;2.13;2.03;;;;;;;;;;4944786;29;20221;-85
2021/08/01 13:44:38;;;;;;;1.90;1.80;;;;;;;;;;4958582;29;20193;-85
2021/08/01 13:47:20;;;;;;;2.17;2.08;;;;;;;;;;4957966;28;20228;-85
2021/08/01 13:49:51;;;;;;;1.90;1.80;;;;;;;;;;4958030;29;20240;-84
2021/08/01 13:52:20;;;;;;;1.92;1.83;;;;;;;;;;4958279;29;20280;-84
2021/08/01 13:54:50;;;;;;;2.60;2.40;;;;;;;;;;4957212;29;20185;-84
2021/08/01 13:57:19;;;;;;;2.42;2.22;;;;;;;;;;4956980;28;20264;-83
2021/08/01 13:59:46;;;;;;;2.85;2.47;;;;;;;;;;4957838;29;20315;-83
2021/08/01 14:02:15;;;;;;;3.25;3.05;;;;;;;;;;4957346;29;20272;-84
2021/08/01 14:04:43;;;;;;;2.67;2.47;;;;;;;;;;4957530;29;20724;-84
2021/08/01 14:07:10;;;;;;;2.28;2.17;;;;;;;;;;4954806;29;20220;-83
2021/08/01 14:09:38;;;;;;;2.38;2.20;;;;;;;;;;4939702;29;20194;-85
2021/08/01 14:12:06;;;;;;;2.60;2.20;;;;;;;;;;4958078;28;20209;-84
2021/08/01 14:14:34;;;;;;;2.67;2.50;;;;;;;;;;4957945;29;20194;-83
2021/08/01 14:17:01;;;;;;;2.88;2.67;;;;;;;;;;4957586;28;20240;-84
2021/08/01 14:19:49;;;;;;;2.83;2.63;;;;;;;;;;4957266;29;20217;-84
2021/08/01 14:22:18;;;;;;;2.88;2.67;;;;;;;;;;4956188;29;20232;-84
2021/08/01 14:24:45;;;;;;;2.78;2.58;;;;;;;;;;4955987;28;20201;-84
2021/08/01 14:27:14;;;;;;;2.80;2.60;;;;;;;;;;4956362;28;20228;-84
2021/08/01 14:29:43;;;;;;;3.42;2.72;;;;;;;;;;4956820;29;20586;-83
2021/08/01 14:32:14;;;;;;;2.83;2.63;;;;;;;;;;4956592;29;20652;-84
2021/08/01 14:34:46;;;;;;;2.80;2.60;;;;;;;;;;4956560;29;20594;-84
2021/08/01 14:37:14;;;;;;;3.38;2.60;;;;;;;;;;4956320;28;20231;-84
2021/08/01 14:39:44;;;;;;;2.25;2.15;;;;;;;;;;4956502;28;20205;-83
2021/08/01 14:42:14;;;;;;;1.92;1.83;;;;;;;;;;4956364;29;20663;-84
2021/08/01 14:44:42;;;;;;;2.25;2.05;;;;;;;;;;4956375;29;20197;-84
2021/08/01 14:47:18;;;;;;;2.03;1.83;;;;;;;;;;4956166;28;20229;-84
2021/08/01 14:49:50;;;;;;;1.77;1.67;;;;;;;;;;4956685;29;20542;-84
2021/08/01 14:55:06;;;;;;;1.55;1.50;;;;;;;;;;4956301;29;20196;-84
2021/08/01 14:57:43;;;;;;;1.42;1.33;;;;;;;;;;4956241;28;20221;-84
2021/08/01 15:00:15;;;;;;;1.60;1.50;;;;;;;;;;4954270;29;20662;-85
2021/08/01 15:03:35;;;;;;;1.20;1.20;;;;;;;;;;4956129;29;20213;-84
2021/08/01 15:06:05;;;;;;;2.13;2.03;;;;;;;;;;4955729;29;20193;-84
2021/08/01 15:09:02;;;;;;;1.55;1.45;;;;;;;;;;4942667;29;20233;-84
2021/08/01 15:11:30;;;;;;;1.75;1.65;;;;;;;;;;4936712;29;20668;-84
2021/08/01 15:14:10;;;;;;;1.77;1.67;;;;;;;;;;4938610;29;20217;-84